sensor_id;sensor_type;location;lat;lon;timestamp;temperature;humidity
40868;DHT22;26586;50.708;22.412;2024-01-16T00:00:58;11.80;42.80
40868;DHT22;26586;50.708;22.412;2024-01-16T00:03:43;11.80;43.50
40868;DHT22;26586;50.708;22.412;2024-01-16T00:06:10;11.80;43.30
40868;DHT22;26586;50.708;22.412;2024-01-16T00:08:36;11.80;43.10
40868;DHT22;26586;50.708;22.412;2024-01-16T00:11:02;11.80;42.80
40868;DHT22;26586;50.708;22.412;2024-01-16T00:13:29;11.80;42.90
40868;DHT22;26586;50.708;22.412;2024-01-16T00:15:55;11.70;42.90
40868;DHT22;26586;50.708;22.412;2024-01-16T00:18:24;11.60;42.90
40868;DHT22;26586;50.708;22.412;2024-01-16T00:20:50;11.60;43.20
40868;DHT22;26586;50.708;22.412;2024-01-16T00:23:16;11.60;43.20
40868;DHT22;26586;50.708;22.412;2024-01-16T00:25:42;11.60;43.40
40868;DHT22;26586;50.708;22.412;2024-01-16T00:28:09;11.60;46.60
40868;DHT22;26586;50.708;22.412;2024-01-16T00:30:35;11.60;43.70
40868;DHT22;26586;50.708;22.412;2024-01-16T00:33:01;11.60;43.40
40868;DHT22;26586;50.708;22.412;2024-01-16T00:35:28;11.50;43.10
40868;DHT22;26586;50.708;22.412;2024-01-16T00:37:54;11.50;42.80
40868;DHT22;26586;50.708;22.412;2024-01-16T00:40:21;11.50;43.50
40868;DHT22;26586;50.708;22.412;2024-01-16T00:42:47;11.50;45.00
40868;DHT22;26586;50.708;22.412;2024-01-16T00:45:13;11.50;43.90
40868;DHT22;26586;50.708;22.412;2024-01-16T00:47:39;11.40;42.50
40868;DHT22;26586;50.708;22.412;2024-01-16T00:50:07;11.40;43.40
40868;DHT22;26586;50.708;22.412;2024-01-16T00:52:35;11.40;43.00
40868;DHT22;26586;50.708;22.412;2024-01-16T00:55:01;11.40;42.50
40868;DHT22;26586;50.708;22.412;2024-01-16T00:57:27;11.40;42.50
40868;DHT22;26586;50.708;22.412;2024-01-16T00:59:53;11.40;42.40
40868;DHT22;26586;50.708;22.412;2024-01-16T01:02:19;11.30;43.30
40868;DHT22;26586;50.708;22.412;2024-01-16T01:04:46;11.30;43.40
40868;DHT22;26586;50.708;22.412;2024-01-16T01:07:15;11.30;44.40
40868;DHT22;26586;50.708;22.412;2024-01-16T01:09:41;11.30;42.80
40868;DHT22;26586;50.708;22.412;2024-01-16T01:12:08;11.30;43.20
40868;DHT22;26586;50.708;22.412;2024-01-16T01:14:34;11.30;42.90
40868;DHT22;26586;50.708;22.412;2024-01-16T01:17:00;11.30;42.80
40868;DHT22;26586;50.708;22.412;2024-01-16T01:19:27;11.30;42.30
40868;DHT22;26586;50.708;22.412;2024-01-16T01:21:53;11.20;41.80
40868;DHT22;26586;50.708;22.412;2024-01-16T01:24:19;11.20;43.10
40868;DHT22;26586;50.708;22.412;2024-01-16T01:26:45;11.20;42.60
40868;DHT22;26586;50.708;22.412;2024-01-16T01:29:11;11.20;42.10
40868;DHT22;26586;50.708;22.412;2024-01-16T01:31:37;11.10;41.50
40868;DHT22;26586;50.708;22.412;2024-01-16T01:34:04;11.10;42.00
40868;DHT22;26586;50.708;22.412;2024-01-16T01:36:30;11.10;41.40
40868;DHT22;26586;50.708;22.412;2024-01-16T01:38:56;11.10;41.90
40868;DHT22;26586;50.708;22.412;2024-01-16T01:41:22;11.10;42.00
40868;DHT22;26586;50.708;22.412;2024-01-16T01:43:49;11.10;42.50
40868;DHT22;26586;50.708;22.412;2024-01-16T01:46:18;11.10;42.30
40868;DHT22;26586;50.708;22.412;2024-01-16T01:48:47;11.10;42.30
40868;DHT22;26586;50.708;22.412;2024-01-16T01:51:18;11.10;41.90
40868;DHT22;26586;50.708;22.412;2024-01-16T01:53:46;11.10;41.60
40868;DHT22;26586;50.708;22.412;2024-01-16T01:56:18;11.00;42.30
40868;DHT22;26586;50.708;22.412;2024-01-16T01:58:47;11.00;40.90
40868;DHT22;26586;50.708;22.412;2024-01-16T02:01:16;11.00;41.10
40868;DHT22;26586;50.708;22.412;2024-01-16T02:03:45;11.00;42.20
40868;DHT22;26586;50.708;22.412;2024-01-16T02:06:12;11.00;40.70
40868;DHT22;26586;50.708;22.412;2024-01-16T02:08:39;10.90;42.90
40868;DHT22;26586;50.708;22.412;2024-01-16T02:11:06;11.00;39.70
40868;DHT22;26586;50.708;22.412;2024-01-16T02:13:33;10.90;38.90
40868;DHT22;26586;50.708;22.412;2024-01-16T02:15:59;10.90;41.60
40868;DHT22;26586;50.708;22.412;2024-01-16T02:18:25;10.90;38.90
40868;DHT22;26586;50.708;22.412;2024-01-16T02:20:51;10.80;38.80
40868;DHT22;26586;50.708;22.412;2024-01-16T02:23:26;10.80;39.20
40868;DHT22;26586;50.708;22.412;2024-01-16T02:25:53;10.80;40.60
40868;DHT22;26586;50.708;22.412;2024-01-16T02:28:20;10.80;40.80
40868;DHT22;26586;50.708;22.412;2024-01-16T02:30:46;10.80;42.40
40868;DHT22;26586;50.708;22.412;2024-01-16T02:33:12;10.80;43.20
40868;DHT22;26586;50.708;22.412;2024-01-16T02:35:38;10.90;41.60
40868;DHT22;26586;50.708;22.412;2024-01-16T02:38:05;10.90;42.30
40868;DHT22;26586;50.708;22.412;2024-01-16T02:40:31;10.90;40.10
40868;DHT22;26586;50.708;22.412;2024-01-16T02:42:57;10.90;41.90
40868;DHT22;26586;50.708;22.412;2024-01-16T02:45:25;11.00;42.00
40868;DHT22;26586;50.708;22.412;2024-01-16T02:47:51;10.90;42.50
40868;DHT22;26586;50.708;22.412;2024-01-16T02:50:17;11.00;43.30
40868;DHT22;26586;50.708;22.412;2024-01-16T02:52:43;11.00;43.60
40868;DHT22;26586;50.708;22.412;2024-01-16T02:55:09;11.00;42.70
40868;DHT22;26586;50.708;22.412;2024-01-16T02:57:36;11.00;49.60
40868;DHT22;26586;50.708;22.412;2024-01-16T03:00:02;11.00;42.70
40868;DHT22;26586;50.708;22.412;2024-01-16T03:02:29;11.00;46.40
40868;DHT22;26586;50.708;22.412;2024-01-16T03:04:55;11.00;50.20
40868;DHT22;26586;50.708;22.412;2024-01-16T03:07:22;11.00;40.30
40868;DHT22;26586;50.708;22.412;2024-01-16T03:09:48;11.00;42.40
40868;DHT22;26586;50.708;22.412;2024-01-16T03:12:14;11.00;40.30
40868;DHT22;26586;50.708;22.412;2024-01-16T03:14:40;11.00;40.70
40868;DHT22;26586;50.708;22.412;2024-01-16T03:17:06;11.00;39.70
40868;DHT22;26586;50.708;22.412;2024-01-16T03:19:32;11.00;41.40
40868;DHT22;26586;50.708;22.412;2024-01-16T03:21:59;11.00;40.30
40868;DHT22;26586;50.708;22.412;2024-01-16T03:24:25;11.00;41.40
40868;DHT22;26586;50.708;22.412;2024-01-16T03:26:52;11.10;41.00
40868;DHT22;26586;50.708;22.412;2024-01-16T03:29:19;11.10;40.40
40868;DHT22;26586;50.708;22.412;2024-01-16T03:31:46;11.10;39.70
40868;DHT22;26586;50.708;22.412;2024-01-16T03:34:12;11.10;40.60
40868;DHT22;26586;50.708;22.412;2024-01-16T03:36:38;11.10;42.10
40868;DHT22;26586;50.708;22.412;2024-01-16T03:39:04;11.10;40.10
40868;DHT22;26586;50.708;22.412;2024-01-16T03:41:31;11.10;40.40
40868;DHT22;26586;50.708;22.412;2024-01-16T03:43:57;11.10;40.30
40868;DHT22;26586;50.708;22.412;2024-01-16T03:46:24;11.10;40.50
40868;DHT22;26586;50.708;22.412;2024-01-16T03:48:50;11.10;42.10
40868;DHT22;26586;50.708;22.412;2024-01-16T03:51:16;11.10;40.70
40868;DHT22;26586;50.708;22.412;2024-01-16T03:53:43;11.10;41.10
40868;DHT22;26586;50.708;22.412;2024-01-16T03:56:10;11.20;39.60
40868;DHT22;26586;50.708;22.412;2024-01-16T03:58:36;11.10;39.20
40868;DHT22;26586;50.708;22.412;2024-01-16T04:01:02;11.10;39.20
40868;DHT22;26586;50.708;22.412;2024-01-16T04:03:28;11.10;43.00
40868;DHT22;26586;50.708;22.412;2024-01-16T04:05:55;11.10;38.70
40868;DHT22;26586;50.708;22.412;2024-01-16T04:08:21;11.10;38.60
40868;DHT22;26586;50.708;22.412;2024-01-16T04:10:47;11.10;42.00
40868;DHT22;26586;50.708;22.412;2024-01-16T04:13:13;11.10;42.00
40868;DHT22;26586;50.708;22.412;2024-01-16T04:15:40;11.00;38.90
40868;DHT22;26586;50.708;22.412;2024-01-16T04:18:06;11.10;38.20
40868;DHT22;26586;50.708;22.412;2024-01-16T04:20:33;11.00;37.80
40868;DHT22;26586;50.708;22.412;2024-01-16T04:22:59;11.00;38.30
40868;DHT22;26586;50.708;22.412;2024-01-16T04:25:25;11.00;38.30
40868;DHT22;26586;50.708;22.412;2024-01-16T04:27:51;11.00;39.20
40868;DHT22;26586;50.708;22.412;2024-01-16T04:30:17;11.00;38.20
40868;DHT22;26586;50.708;22.412;2024-01-16T04:32:46;11.00;44.20
40868;DHT22;26586;50.708;22.412;2024-01-16T04:35:12;11.00;38.30
40868;DHT22;26586;50.708;22.412;2024-01-16T04:37:38;11.00;39.20
40868;DHT22;26586;50.708;22.412;2024-01-16T04:40:05;11.00;39.10
40868;DHT22;26586;50.708;22.412;2024-01-16T04:42:32;11.00;38.30
40868;DHT22;26586;50.708;22.412;2024-01-16T04:44:58;11.00;37.40
40868;DHT22;26586;50.708;22.412;2024-01-16T04:47:24;10.90;38.00
40868;DHT22;26586;50.708;22.412;2024-01-16T04:49:51;11.00;38.10
40868;DHT22;26586;50.708;22.412;2024-01-16T04:52:17;11.00;44.40
40868;DHT22;26586;50.708;22.412;2024-01-16T04:54:44;11.00;37.50
40868;DHT22;26586;50.708;22.412;2024-01-16T04:57:11;11.00;39.10
40868;DHT22;26586;50.708;22.412;2024-01-16T04:59:37;10.90;37.60
40868;DHT22;26586;50.708;22.412;2024-01-16T05:02:03;11.00;36.80
40868;DHT22;26586;50.708;22.412;2024-01-16T05:04:30;10.90;38.10
40868;DHT22;26586;50.708;22.412;2024-01-16T05:06:56;10.90;38.80
40868;DHT22;26586;50.708;22.412;2024-01-16T05:09:22;10.90;37.30
40868;DHT22;26586;50.708;22.412;2024-01-16T05:11:49;10.90;39.90
40868;DHT22;26586;50.708;22.412;2024-01-16T05:14:15;10.90;40.70
40868;DHT22;26586;50.708;22.412;2024-01-16T05:16:41;10.90;42.90
40868;DHT22;26586;50.708;22.412;2024-01-16T05:19:07;10.90;39.80
40868;DHT22;26586;50.708;22.412;2024-01-16T05:21:33;10.90;38.40
40868;DHT22;26586;50.708;22.412;2024-01-16T05:24:00;10.90;37.00
40868;DHT22;26586;50.708;22.412;2024-01-16T05:26:26;10.80;40.70
40868;DHT22;26586;50.708;22.412;2024-01-16T05:28:52;10.80;37.80
40868;DHT22;26586;50.708;22.412;2024-01-16T05:31:18;10.80;37.40
40868;DHT22;26586;50.708;22.412;2024-01-16T05:33:45;10.80;38.50
40868;DHT22;26586;50.708;22.412;2024-01-16T05:36:11;10.80;39.50
40868;DHT22;26586;50.708;22.412;2024-01-16T05:38:38;10.80;39.20
40868;DHT22;26586;50.708;22.412;2024-01-16T05:41:04;10.90;40.10
40868;DHT22;26586;50.708;22.412;2024-01-16T05:43:31;10.80;38.40
40868;DHT22;26586;50.708;22.412;2024-01-16T05:45:57;10.80;37.40
40868;DHT22;26586;50.708;22.412;2024-01-16T05:48:23;10.80;38.30
40868;DHT22;26586;50.708;22.412;2024-01-16T05:50:49;10.80;36.70
40868;DHT22;26586;50.708;22.412;2024-01-16T05:53:15;10.80;37.00
40868;DHT22;26586;50.708;22.412;2024-01-16T05:55:41;10.80;37.10
40868;DHT22;26586;50.708;22.412;2024-01-16T05:58:08;10.80;36.60
40868;DHT22;26586;50.708;22.412;2024-01-16T06:00:34;10.70;36.70
40868;DHT22;26586;50.708;22.412;2024-01-16T06:03:00;10.70;36.40
40868;DHT22;26586;50.708;22.412;2024-01-16T06:05:27;10.70;36.60
40868;DHT22;26586;50.708;22.412;2024-01-16T06:07:53;10.70;37.60
40868;DHT22;26586;50.708;22.412;2024-01-16T06:10:19;10.70;36.70
40868;DHT22;26586;50.708;22.412;2024-01-16T06:12:45;10.70;37.00
40868;DHT22;26586;50.708;22.412;2024-01-16T06:15:11;10.70;37.10
40868;DHT22;26586;50.708;22.412;2024-01-16T06:17:38;10.70;36.90
40868;DHT22;26586;50.708;22.412;2024-01-16T06:20:04;10.70;36.90
40868;DHT22;26586;50.708;22.412;2024-01-16T06:22:32;10.70;38.90
40868;DHT22;26586;50.708;22.412;2024-01-16T06:24:58;10.70;38.00
40868;DHT22;26586;50.708;22.412;2024-01-16T06:27:25;10.70;37.30
40868;DHT22;26586;50.708;22.412;2024-01-16T06:29:51;10.70;37.60
40868;DHT22;26586;50.708;22.412;2024-01-16T06:32:17;10.70;36.80
40868;DHT22;26586;50.708;22.412;2024-01-16T06:34:43;10.70;36.90
40868;DHT22;26586;50.708;22.412;2024-01-16T06:37:10;10.70;37.10
40868;DHT22;26586;50.708;22.412;2024-01-16T06:39:36;10.60;38.30
40868;DHT22;26586;50.708;22.412;2024-01-16T06:42:04;10.70;36.90
40868;DHT22;26586;50.708;22.412;2024-01-16T06:44:30;10.70;37.70
40868;DHT22;26586;50.708;22.412;2024-01-16T06:46:57;10.70;36.90
40868;DHT22;26586;50.708;22.412;2024-01-16T06:49:23;10.60;36.70
40868;DHT22;26586;50.708;22.412;2024-01-16T06:51:49;10.60;36.60
40868;DHT22;26586;50.708;22.412;2024-01-16T06:54:15;10.60;36.80
40868;DHT22;26586;50.708;22.412;2024-01-16T06:56:42;10.60;37.20
40868;DHT22;26586;50.708;22.412;2024-01-16T06:59:08;10.60;36.90
40868;DHT22;26586;50.708;22.412;2024-01-16T07:01:34;10.60;36.70
40868;DHT22;26586;50.708;22.412;2024-01-16T07:04:00;10.60;36.80
40868;DHT22;26586;50.708;22.412;2024-01-16T07:06:27;10.60;38.40
40868;DHT22;26586;50.708;22.412;2024-01-16T07:08:53;10.60;39.00
40868;DHT22;26586;50.708;22.412;2024-01-16T07:11:20;10.60;37.30
40868;DHT22;26586;50.708;22.412;2024-01-16T07:13:46;10.60;36.90
40868;DHT22;26586;50.708;22.412;2024-01-16T07:16:13;10.50;35.50
40868;DHT22;26586;50.708;22.412;2024-01-16T07:18:40;10.40;35.30
40868;DHT22;26586;50.708;22.412;2024-01-16T07:21:19;10.30;35.40
40868;DHT22;26586;50.708;22.412;2024-01-16T07:23:45;10.20;35.60
40868;DHT22;26586;50.708;22.412;2024-01-16T07:26:12;10.10;35.80
40868;DHT22;26586;50.708;22.412;2024-01-16T07:28:38;10.10;36.00
40868;DHT22;26586;50.708;22.412;2024-01-16T07:31:04;10.00;36.70
40868;DHT22;26586;50.708;22.412;2024-01-16T07:33:32;9.90;36.10
40868;DHT22;26586;50.708;22.412;2024-01-16T07:35:58;9.90;36.10
40868;DHT22;26586;50.708;22.412;2024-01-16T07:38:24;9.90;36.20
40868;DHT22;26586;50.708;22.412;2024-01-16T07:40:50;9.80;36.30
40868;DHT22;26586;50.708;22.412;2024-01-16T07:43:16;9.80;36.40
40868;DHT22;26586;50.708;22.412;2024-01-16T07:45:43;9.70;36.40
40868;DHT22;26586;50.708;22.412;2024-01-16T07:48:09;9.70;36.50
40868;DHT22;26586;50.708;22.412;2024-01-16T07:50:35;9.70;36.70
40868;DHT22;26586;50.708;22.412;2024-01-16T07:53:02;9.60;36.60
40868;DHT22;26586;50.708;22.412;2024-01-16T07:55:28;9.60;36.70
40868;DHT22;26586;50.708;22.412;2024-01-16T07:57:54;9.60;36.70
40868;DHT22;26586;50.708;22.412;2024-01-16T08:00:21;9.60;36.50
40868;DHT22;26586;50.708;22.412;2024-01-16T08:02:47;9.60;36.50
40868;DHT22;26586;50.708;22.412;2024-01-16T08:05:15;9.60;36.30
40868;DHT22;26586;50.708;22.412;2024-01-16T08:07:44;9.60;36.20
40868;DHT22;26586;50.708;22.412;2024-01-16T08:10:10;9.60;36.30
40868;DHT22;26586;50.708;22.412;2024-01-16T08:12:36;9.60;36.10
40868;DHT22;26586;50.708;22.412;2024-01-16T08:15:04;9.60;36.10
40868;DHT22;26586;50.708;22.412;2024-01-16T08:17:31;9.60;36.10
40868;DHT22;26586;50.708;22.412;2024-01-16T08:19:57;9.60;36.00
40868;DHT22;26586;50.708;22.412;2024-01-16T08:22:23;9.50;36.20
40868;DHT22;26586;50.708;22.412;2024-01-16T08:24:49;9.50;36.10
40868;DHT22;26586;50.708;22.412;2024-01-16T08:27:15;9.50;36.10
40868;DHT22;26586;50.708;22.412;2024-01-16T08:29:43;9.50;36.10
40868;DHT22;26586;50.708;22.412;2024-01-16T08:32:09;9.50;36.00
40868;DHT22;26586;50.708;22.412;2024-01-16T08:34:35;9.60;36.10
40868;DHT22;26586;50.708;22.412;2024-01-16T08:37:01;9.60;36.10
40868;DHT22;26586;50.708;22.412;2024-01-16T08:39:27;9.60;36.20
40868;DHT22;26586;50.708;22.412;2024-01-16T08:41:55;9.60;36.20
40868;DHT22;26586;50.708;22.412;2024-01-16T08:44:23;9.60;36.10
40868;DHT22;26586;50.708;22.412;2024-01-16T08:46:49;9.60;36.10
40868;DHT22;26586;50.708;22.412;2024-01-16T08:49:16;9.60;36.20
40868;DHT22;26586;50.708;22.412;2024-01-16T08:51:42;9.60;36.50
40868;DHT22;26586;50.708;22.412;2024-01-16T08:54:09;9.60;36.70
40868;DHT22;26586;50.708;22.412;2024-01-16T08:56:35;9.60;36.80
40868;DHT22;26586;50.708;22.412;2024-01-16T08:59:01;9.60;36.50
40868;DHT22;26586;50.708;22.412;2024-01-16T09:01:27;9.60;36.50
40868;DHT22;26586;50.708;22.412;2024-01-16T09:03:54;9.60;36.40
40868;DHT22;26586;50.708;22.412;2024-01-16T09:06:20;9.60;36.50
40868;DHT22;26586;50.708;22.412;2024-01-16T09:08:46;9.60;36.30
40868;DHT22;26586;50.708;22.412;2024-01-16T09:11:12;9.60;36.30
40868;DHT22;26586;50.708;22.412;2024-01-16T09:13:38;9.60;36.30
40868;DHT22;26586;50.708;22.412;2024-01-16T09:16:05;9.60;36.30
40868;DHT22;26586;50.708;22.412;2024-01-16T09:18:31;9.70;36.30
40868;DHT22;26586;50.708;22.412;2024-01-16T09:20:57;9.70;36.40
40868;DHT22;26586;50.708;22.412;2024-01-16T09:23:23;9.70;36.40
40868;DHT22;26586;50.708;22.412;2024-01-16T09:25:50;9.70;36.10
40868;DHT22;26586;50.708;22.412;2024-01-16T09:28:16;9.70;36.10
40868;DHT22;26586;50.708;22.412;2024-01-16T09:30:42;9.70;35.90
40868;DHT22;26586;50.708;22.412;2024-01-16T09:33:08;9.70;36.20
40868;DHT22;26586;50.708;22.412;2024-01-16T09:35:36;9.70;36.10
40868;DHT22;26586;50.708;22.412;2024-01-16T09:38:03;9.70;36.00
40868;DHT22;26586;50.708;22.412;2024-01-16T09:40:32;9.80;36.10
40868;DHT22;26586;50.708;22.412;2024-01-16T09:42:59;9.70;36.00
40868;DHT22;26586;50.708;22.412;2024-01-16T09:45:26;9.80;35.60
40868;DHT22;26586;50.708;22.412;2024-01-16T09:47:53;9.70;35.70
40868;DHT22;26586;50.708;22.412;2024-01-16T09:50:19;9.80;35.90
40868;DHT22;26586;50.708;22.412;2024-01-16T09:52:46;9.80;36.00
40868;DHT22;26586;50.708;22.412;2024-01-16T09:55:14;9.80;36.40
40868;DHT22;26586;50.708;22.412;2024-01-16T09:57:41;9.80;36.50
40868;DHT22;26586;50.708;22.412;2024-01-16T10:00:10;9.80;36.40
40868;DHT22;26586;50.708;22.412;2024-01-16T10:02:40;9.90;36.20
40868;DHT22;26586;50.708;22.412;2024-01-16T10:05:09;10.00;36.30
40868;DHT22;26586;50.708;22.412;2024-01-16T10:07:42;10.00;36.00
40868;DHT22;26586;50.708;22.412;2024-01-16T10:10:12;10.00;35.60
40868;DHT22;26586;50.708;22.412;2024-01-16T10:12:39;10.10;35.50
40868;DHT22;26586;50.708;22.412;2024-01-16T10:15:06;10.10;35.60
40868;DHT22;26586;50.708;22.412;2024-01-16T10:17:40;10.20;35.50
40868;DHT22;26586;50.708;22.412;2024-01-16T10:20:08;10.30;35.40
40868;DHT22;26586;50.708;22.412;2024-01-16T10:22:39;10.30;35.60
40868;DHT22;26586;50.708;22.412;2024-01-16T10:25:13;10.40;35.80
40868;DHT22;26586;50.708;22.412;2024-01-16T10:27:42;10.40;35.60
40868;DHT22;26586;50.708;22.412;2024-01-16T10:30:09;10.50;36.00
40868;DHT22;26586;50.708;22.412;2024-01-16T10:32:42;10.60;36.00
40868;DHT22;26586;50.708;22.412;2024-01-16T10:35:10;10.70;34.90
40868;DHT22;26586;50.708;22.412;2024-01-16T10:37:50;10.70;37.00
40868;DHT22;26586;50.708;22.412;2024-01-16T10:40:22;10.80;35.30
40868;DHT22;26586;50.708;22.412;2024-01-16T10:43:02;10.90;35.20
40868;DHT22;26586;50.708;22.412;2024-01-16T10:45:29;11.00;35.00
40868;DHT22;26586;50.708;22.412;2024-01-16T10:48:06;11.10;35.20
40868;DHT22;26586;50.708;22.412;2024-01-16T10:50:33;11.20;35.10
40868;DHT22;26586;50.708;22.412;2024-01-16T10:53:03;11.20;34.70
40868;DHT22;26586;50.708;22.412;2024-01-16T10:55:29;11.40;34.70
40868;DHT22;26586;50.708;22.412;2024-01-16T10:57:57;11.50;34.60
40868;DHT22;26586;50.708;22.412;2024-01-16T11:00:27;11.60;34.40
40868;DHT22;26586;50.708;22.412;2024-01-16T11:03:16;11.60;34.20
40868;DHT22;26586;50.708;22.412;2024-01-16T11:05:44;11.70;34.00
40868;DHT22;26586;50.708;22.412;2024-01-16T11:08:11;11.80;33.90
40868;DHT22;26586;50.708;22.412;2024-01-16T11:10:40;11.90;33.80
40868;DHT22;26586;50.708;22.412;2024-01-16T11:13:06;12.00;33.30
40868;DHT22;26586;50.708;22.412;2024-01-16T11:15:33;12.10;33.00
40868;DHT22;26586;50.708;22.412;2024-01-16T11:18:01;12.10;32.80
40868;DHT22;26586;50.708;22.412;2024-01-16T11:20:31;12.20;32.90
40868;DHT22;26586;50.708;22.412;2024-01-16T11:22:58;12.30;32.80
40868;DHT22;26586;50.708;22.412;2024-01-16T11:25:32;12.30;33.00
40868;DHT22;26586;50.708;22.412;2024-01-16T11:28:11;12.40;32.40
40868;DHT22;26586;50.708;22.412;2024-01-16T11:30:38;12.50;32.20
40868;DHT22;26586;50.708;22.412;2024-01-16T11:33:05;12.50;32.30
40868;DHT22;26586;50.708;22.412;2024-01-16T11:35:36;12.60;32.60
40868;DHT22;26586;50.708;22.412;2024-01-16T11:38:06;12.60;32.70
40868;DHT22;26586;50.708;22.412;2024-01-16T11:40:34;12.70;32.30
40868;DHT22;26586;50.708;22.412;2024-01-16T11:46:00;12.80;32.20
40868;DHT22;26586;50.708;22.412;2024-01-16T11:48:27;12.80;32.40
40868;DHT22;26586;50.708;22.412;2024-01-16T11:50:53;12.90;32.30
40868;DHT22;26586;50.708;22.412;2024-01-16T11:53:38;13.00;32.30
40868;DHT22;26586;50.708;22.412;2024-01-16T11:56:27;13.00;32.20
40868;DHT22;26586;50.708;22.412;2024-01-16T12:01:45;13.10;31.70
40868;DHT22;26586;50.708;22.412;2024-01-16T12:04:14;13.10;31.70
40868;DHT22;26586;50.708;22.412;2024-01-16T12:06:44;13.20;31.80
40868;DHT22;26586;50.708;22.412;2024-01-16T12:09:24;13.20;31.70
40868;DHT22;26586;50.708;22.412;2024-01-16T12:12:01;13.20;31.90
40868;DHT22;26586;50.708;22.412;2024-01-16T12:14:28;13.20;32.30
40868;DHT22;26586;50.708;22.412;2024-01-16T12:17:15;13.30;33.30
40868;DHT22;26586;50.708;22.412;2024-01-16T12:19:44;13.30;32.80
40868;DHT22;26586;50.708;22.412;2024-01-16T12:22:13;13.40;32.50
40868;DHT22;26586;50.708;22.412;2024-01-16T12:24:39;13.40;31.80
40868;DHT22;26586;50.708;22.412;2024-01-16T12:27:06;13.50;31.70
40868;DHT22;26586;50.708;22.412;2024-01-16T12:29:32;13.50;31.80
40868;DHT22;26586;50.708;22.412;2024-01-16T12:32:09;13.50;31.80
40868;DHT22;26586;50.708;22.412;2024-01-16T12:34:49;13.50;31.90
40868;DHT22;26586;50.708;22.412;2024-01-16T12:37:15;13.60;31.40
40868;DHT22;26586;50.708;22.412;2024-01-16T12:39:42;13.60;31.70
40868;DHT22;26586;50.708;22.412;2024-01-16T12:42:10;13.60;31.50
40868;DHT22;26586;50.708;22.412;2024-01-16T12:44:37;13.60;31.20
40868;DHT22;26586;50.708;22.412;2024-01-16T12:47:04;13.60;30.90
40868;DHT22;26586;50.708;22.412;2024-01-16T12:49:30;13.70;30.70
40868;DHT22;26586;50.708;22.412;2024-01-16T12:52:21;13.70;30.20
40868;DHT22;26586;50.708;22.412;2024-01-16T12:54:48;13.60;29.90
40868;DHT22;26586;50.708;22.412;2024-01-16T12:57:21;13.60;29.90
40868;DHT22;26586;50.708;22.412;2024-01-16T12:59:48;13.60;30.20
40868;DHT22;26586;50.708;22.412;2024-01-16T13:02:22;13.60;30.00
40868;DHT22;26586;50.708;22.412;2024-01-16T13:04:55;13.60;29.80
40868;DHT22;26586;50.708;22.412;2024-01-16T13:07:22;13.60;30.10
40868;DHT22;26586;50.708;22.412;2024-01-16T13:09:48;13.60;29.90
40868;DHT22;26586;50.708;22.412;2024-01-16T13:12:21;13.60;30.20
40868;DHT22;26586;50.708;22.412;2024-01-16T13:14:47;13.60;30.50
40868;DHT22;26586;50.708;22.412;2024-01-16T13:17:13;13.60;30.80
40868;DHT22;26586;50.708;22.412;2024-01-16T13:19:40;13.60;30.70
40868;DHT22;26586;50.708;22.412;2024-01-16T13:22:08;13.60;30.60
40868;DHT22;26586;50.708;22.412;2024-01-16T13:24:34;13.60;31.00
40868;DHT22;26586;50.708;22.412;2024-01-16T13:27:00;13.60;31.00
40868;DHT22;26586;50.708;22.412;2024-01-16T13:29:26;13.50;30.10
40868;DHT22;26586;50.708;22.412;2024-01-16T13:31:53;13.50;30.20
40868;DHT22;26586;50.708;22.412;2024-01-16T13:34:20;13.50;30.10
40868;DHT22;26586;50.708;22.412;2024-01-16T13:36:49;13.50;29.80
40868;DHT22;26586;50.708;22.412;2024-01-16T13:39:16;13.40;29.80
40868;DHT22;26586;50.708;22.412;2024-01-16T13:41:43;13.40;29.90
40868;DHT22;26586;50.708;22.412;2024-01-16T13:44:09;13.40;30.00
40868;DHT22;26586;50.708;22.412;2024-01-16T13:46:35;13.40;30.10
40868;DHT22;26586;50.708;22.412;2024-01-16T13:49:02;13.40;30.80
40868;DHT22;26586;50.708;22.412;2024-01-16T13:51:28;13.40;30.30
40868;DHT22;26586;50.708;22.412;2024-01-16T13:53:54;13.40;30.30
40868;DHT22;26586;50.708;22.412;2024-01-16T13:56:20;13.40;30.30
40868;DHT22;26586;50.708;22.412;2024-01-16T13:58:47;13.40;30.00
40868;DHT22;26586;50.708;22.412;2024-01-16T14:01:13;13.30;29.60
40868;DHT22;26586;50.708;22.412;2024-01-16T14:03:39;13.30;29.40
40868;DHT22;26586;50.708;22.412;2024-01-16T14:06:06;13.30;29.40
40868;DHT22;26586;50.708;22.412;2024-01-16T14:08:33;13.30;29.70
40868;DHT22;26586;50.708;22.412;2024-01-16T14:10:59;13.30;29.50
40868;DHT22;26586;50.708;22.412;2024-01-16T14:13:25;13.20;29.70
40868;DHT22;26586;50.708;22.412;2024-01-16T14:15:51;13.20;29.70
40868;DHT22;26586;50.708;22.412;2024-01-16T14:18:17;13.10;29.80
40868;DHT22;26586;50.708;22.412;2024-01-16T14:20:45;13.10;29.80
40868;DHT22;26586;50.708;22.412;2024-01-16T14:23:11;13.10;29.70
40868;DHT22;26586;50.708;22.412;2024-01-16T14:25:38;13.10;30.00
40868;DHT22;26586;50.708;22.412;2024-01-16T14:28:05;13.10;30.00
40868;DHT22;26586;50.708;22.412;2024-01-16T14:30:33;13.00;30.00
40868;DHT22;26586;50.708;22.412;2024-01-16T14:32:59;13.00;30.10
40868;DHT22;26586;50.708;22.412;2024-01-16T14:35:25;13.00;31.30
40868;DHT22;26586;50.708;22.412;2024-01-16T14:37:51;13.00;30.30
40868;DHT22;26586;50.708;22.412;2024-01-16T14:40:18;13.00;30.20
40868;DHT22;26586;50.708;22.412;2024-01-16T14:42:49;12.90;30.10
40868;DHT22;26586;50.708;22.412;2024-01-16T14:45:20;12.90;30.80
40868;DHT22;26586;50.708;22.412;2024-01-16T14:47:47;12.90;30.60
40868;DHT22;26586;50.708;22.412;2024-01-16T14:50:15;12.80;30.50
40868;DHT22;26586;50.708;22.412;2024-01-16T14:52:44;12.80;30.40
40868;DHT22;26586;50.708;22.412;2024-01-16T14:55:10;12.80;30.20
40868;DHT22;26586;50.708;22.412;2024-01-16T14:57:38;12.70;30.20
40868;DHT22;26586;50.708;22.412;2024-01-16T15:00:13;12.70;30.30
40868;DHT22;26586;50.708;22.412;2024-01-16T15:02:52;12.70;30.40
40868;DHT22;26586;50.708;22.412;2024-01-16T15:05:20;12.70;30.50
40868;DHT22;26586;50.708;22.412;2024-01-16T15:07:47;12.60;31.00
40868;DHT22;26586;50.708;22.412;2024-01-16T15:10:14;12.60;30.90
40868;DHT22;26586;50.708;22.412;2024-01-16T15:12:46;12.60;31.20
40868;DHT22;26586;50.708;22.412;2024-01-16T15:15:14;12.50;31.50
40868;DHT22;26586;50.708;22.412;2024-01-16T15:17:41;12.50;32.50
40868;DHT22;26586;50.708;22.412;2024-01-16T15:20:09;12.50;31.60
40868;DHT22;26586;50.708;22.412;2024-01-16T15:22:41;12.50;31.70
40868;DHT22;26586;50.708;22.412;2024-01-16T15:25:10;12.50;32.00